createdAt,value
2022-09-28T00:02:57.856Z,1
2022-09-28T00:31:51.034Z,1
2022-09-28T01:00:15.157Z,3
2022-09-28T01:28:57.897Z,3
2022-09-28T01:57:43.040Z,3
2022-09-28T02:26:24.394Z,3
2022-09-28T02:54:57.194Z,3
2022-09-28T03:23:40.675Z,1
2022-09-28T03:53:38.265Z,3
2022-09-28T04:21:50.595Z,1
2022-09-28T04:50:27.391Z,1
2022-09-28T05:19:14.037Z,1
2022-09-28T05:47:31.211Z,3
2022-09-28T06:16:21.365Z,4
2022-09-28T06:44:46.563Z,3
2022-09-28T07:13:48.304Z,3
2022-09-28T07:42:02.858Z,3
2022-09-28T09:08:13.182Z,3
2022-09-28T09:36:50.913Z,4
2022-09-28T10:05:22.638Z,4
2022-09-28T10:33:58.543Z,4
2022-09-28T11:02:23.147Z,4
2022-09-28T11:30:49.712Z,3
2022-09-28T11:59:14.296Z,3
2022-09-28T12:27:52.873Z,3
2022-09-28T12:56:24.903Z,3
2022-09-28T13:24:58.509Z,4
2022-09-28T13:53:33.693Z,3
2022-09-28T14:22:05.222Z,3
2022-09-28T14:50:32.240Z,4
2022-09-28T15:19:08.016Z,4
2022-09-28T15:47:26.379Z,4
2022-09-28T16:15:57.639Z,4
2022-09-28T16:44:23.996Z,4
2022-09-28T17:12:47.682Z,4
2022-09-28T17:41:21.907Z,4
2022-09-28T18:09:33.797Z,5
2022-09-28T18:38:14.708Z,9
2022-09-28T19:06:50.039Z,10
2022-09-28T19:35:18.760Z,10
2022-09-28T20:04:01.517Z,15
2022-09-28T20:32:39.874Z,21
2022-09-28T22:42:15.847Z,10
2022-09-28T23:10:09.998Z,11
2022-09-28T23:38:55.400Z,9
